Time;durP1;ratioP1;P1;durP2;ratioP2;P2;SDS_P1;SDS_P2;PMS_P1;PMS_P2;Temp;Humidity;BMP_temperature;BMP_pressure;BME280_temperature;BME280_humidity;BME280_pressure;Samples;Min_cycle;Max_cycle;Signal;HPM_P1;HPM_P2
2022/11/23 00:08:04;;;;;;;0.10;0.00;;;1.00;99.90;;;;;;20107727;23;20482;-52
2022/11/23 00:18:07;;;;;;;0.00;0.00;;;1.00;99.90;;;;;;20971685;23;20058;-46
2022/11/23 00:28:10;;;;;;;0.00;0.00;;;1.00;99.90;;;;;;20200217;23;20062;-66
2022/11/23 00:38:13;;;;;;;0.00;0.00;;;0.80;99.90;;;;;;20197193;23;20221;-53
2022/11/23 00:48:16;;;;;;;0.10;0.00;;;0.80;99.90;;;;;;20201776;23;20126;-60
2022/11/23 00:58:22;;;;;;;0.30;0.00;;;0.80;99.90;;;;;;20159602;23;20089;31
2022/11/23 01:08:26;;;;;;;0.10;0.00;;;0.90;99.90;;;;;;20176597;23;20563;-65
2022/11/23 01:18:28;;;;;;;0.00;0.00;;;0.30;99.90;;;;;;20194730;23;20401;-46
2022/11/23 01:28:32;;;;;;;0.00;0.00;;;-0.20;99.90;;;;;;20162468;24;20107;-63
2022/11/23 01:38:34;;;;;;;0.00;0.00;;;-0.60;99.90;;;;;;20196578;23;20054;-53
2022/11/23 01:48:58;;;;;;;0.00;0.00;;;-0.90;99.90;;;;;;20202576;23;20025;-58
2022/11/23 01:59:06;;;;;;;0.30;0.00;;;-1.10;99.90;;;;;;20210119;23;20129;-50
2022/11/23 02:09:08;;;;;;;0.03;0.00;;;-1.20;99.90;;;;;;21022507;23;20647;-56
2022/11/23 02:29:59;;;;;;;0.00;0.00;;;-1.30;99.90;;;;;;20807651;23;20130;-51
2022/11/23 02:50:27;;;;;;;0.65;0.10;;;-0.70;99.90;;;;;;20162382;24;20065;-52
2022/11/23 03:00:29;;;;;;;0.22;0.00;;;-0.80;99.90;;;;;;20217063;23;20049;-62
2022/11/23 03:10:34;;;;;;;0.47;0.00;;;-1.20;99.90;;;;;;20210489;23;20054;-49
2022/11/23 03:20:37;;;;;;;0.00;0.00;;;-1.50;99.90;;;;;;20186108;23;20183;-62
2022/11/23 03:30:42;;;;;;;0.00;0.00;;;-1.70;99.90;;;;;;20939811;24;21009;-62
2022/11/23 03:40:49;;;;;;;0.00;0.00;;;-1.60;99.90;;;;;;20185649;23;20061;31
2022/11/23 03:51:13;;;;;;;0.00;0.00;;;-1.20;99.90;;;;;;20120319;23;20160;-52
2022/11/23 04:01:16;;;;;;;0.00;0.00;;;-1.20;99.90;;;;;;20153029;23;20050;-62
2022/11/23 04:11:21;;;;;;;0.00;0.00;;;-1.10;99.90;;;;;;20198908;23;20141;-51
2022/11/23 04:21:25;;;;;;;0.10;0.00;;;-1.10;99.90;;;;;;20186091;23;20110;-62
2022/11/23 04:31:27;;;;;;;0.00;0.00;;;-1.30;99.90;;;;;;20176906;23;20057;-50
2022/11/23 04:41:42;;;;;;;0.13;0.00;;;-1.30;99.90;;;;;;20114328;23;2207994;-62
2022/11/23 04:51:45;;;;;;;0.00;0.00;;;-1.30;99.90;;;;;;20181450;23;20153;-50
2022/11/23 05:02:00;;;;;;;0.10;0.00;;;-1.20;99.90;;;;;;20153021;23;20091;-48
2022/11/23 05:12:25;;;;;;;0.00;0.00;;;-1.10;99.90;;;;;;20149017;23;20393;31
2022/11/23 05:22:28;;;;;;;0.10;0.00;;;-1.10;99.90;;;;;;20161509;23;20122;-47
2022/11/23 05:32:30;;;;;;;0.00;0.00;;;-1.10;99.90;;;;;;20192158;23;20420;-62
2022/11/23 05:42:36;;;;;;;0.28;0.00;;;-1.30;99.90;;;;;;20198632;23;20050;-54
2022/11/23 05:52:47;;;;;;;;;;;-1.30;99.90;;;;;;20169118;23;20424;-62
2022/11/23 06:02:50;;;;;;;0.00;0.00;;;-0.80;99.90;;;;;;20158310;23;19924;-57
2022/11/23 06:12:53;;;;;;;0.10;0.00;;;-0.70;99.90;;;;;;20154440;23;20055;-61
2022/11/23 06:23:31;;;;;;;0.00;0.00;;;-0.30;99.90;;;;;;20139277;23;20062;-62
2022/11/23 06:33:35;;;;;;;0.20;0.08;;;-0.30;99.90;;;;;;20184188;23;20057;31
2022/11/23 06:43:49;;;;;;;0.00;0.00;;;-0.30;99.90;;;;;;20887857;23;20153;31
2022/11/23 06:54:02;;;;;;;0.00;0.00;;;-0.10;99.90;;;;;;20102947;23;20095;-53
2022/11/23 07:04:05;;;;;;;0.00;0.00;;;-0.50;99.90;;;;;;21768151;23;20046;-48
2022/11/23 07:14:13;;;;;;;0.00;0.00;;;-0.60;99.90;;;;;;20940774;23;20061;-45
2022/11/23 07:24:20;;;;;;;0.00;0.00;;;0.10;99.90;;;;;;20183049;23;20079;-63
2022/11/23 07:34:23;;;;;;;0.65;0.00;;;0.40;99.90;;;;;;20158852;23;20114;-48
2022/11/23 07:44:27;;;;;;;0.00;0.00;;;0.80;99.90;;;;;;20207730;23;20090;-60
2022/11/23 07:54:30;;;;;;;0.00;0.00;;;1.20;99.90;;;;;;20138285;23;20058;-63
2022/11/23 08:04:32;;;;;;;0.00;0.00;;;1.60;99.90;;;;;;20203714;23;20058;-47
2022/11/23 08:14:35;;;;;;;0.08;0.00;;;2.00;99.90;;;;;;20200210;23;20114;-60
2022/11/23 08:24:37;;;;;;;0.25;0.00;;;2.50;99.90;;;;;;20196773;23;20105;-48
2022/11/23 08:34:42;;;;;;;0.00;0.00;;;2.90;99.90;;;;;;20209223;23;20132;-62
2022/11/23 08:44:53;;;;;;;0.00;0.00;;;3.30;99.90;;;;;;20162929;23;20125;31
2022/11/23 08:54:55;;;;;;;0.00;0.00;;;3.40;99.90;;;;;;20905497;23;20058;-50
2022/11/23 09:04:59;;;;;;;0.00;0.00;;;4.00;99.90;;;;;;20199216;23;20054;-62
2022/11/23 09:15:01;;;;;;;1.02;0.00;;;4.70;99.90;;;;;;20197326;23;20099;-54
2022/11/23 09:25:05;;;;;;;0.08;0.00;;;4.90;99.90;;;;;;20144673;23;20028;-48
2022/11/23 09:35:08;;;;;;;0.17;0.00;;;5.40;99.90;;;;;;20163536;23;20465;-47
2022/11/23 09:45:28;;;;;;;0.20;0.00;;;6.70;99.90;;;;;;20013617;29;20284;-57
2022/11/23 09:55:42;;;;;;;0.13;0.03;;;7.40;99.90;;;;;;20049844;24;20053;-56
2022/11/23 10:06:09;;;;;;;0.00;0.00;;;8.00;99.40;;;;;;20006060;29;20107;-57
2022/11/23 10:16:20;;;;;;;0.05;0.00;;;8.30;97.40;;;;;;20009986;29;20103;-57
2022/11/23 10:26:30;;;;;;;0.00;0.00;;;8.80;99.20;;;;;;20005441;29;20046;-59
2022/11/23 10:36:38;;;;;;;0.13;0.00;;;9.30;95.90;;;;;;19989693;29;20042;-56
2022/11/23 10:46:42;;;;;;;0.00;0.00;;;9.20;94.80;;;;;;20008246;29;20094;-58
2022/11/23 10:56:48;;;;;;;0.10;0.10;;;9.70;94.40;;;;;;20022119;29;20091;-57
2022/11/23 11:06:51;;;;;;;0.30;0.10;;;10.20;92.40;;;;;;20021570;29;20347;-53
2022/11/23 11:16:55;;;;;;;0.10;0.10;;;10.20;92.40;;;;;;20020223;29;20046;-55
2022/11/23 11:27:05;;;;;;;0.10;0.00;;;10.10;90.90;;;;;;20024837;29;20038;-55
2022/11/23 11:37:35;;;;;;;0.38;0.00;;;9.60;90.60;;;;;;20000685;29;20070;-50
2022/11/23 11:47:44;;;;;;;0.10;0.00;;;8.70;91.10;;;;;;20018696;29;20106;-52
2022/11/23 11:58:00;;;;;;;0.10;0.00;;;9.10;92.00;;;;;;19961190;29;20419;-50
2022/11/23 12:08:31;;;;;;;0.00;0.00;;;9.10;92.20;;;;;;19959616;29;20038;-54
2022/11/23 12:18:58;;;;;;;0.10;0.00;;;8.80;89.30;;;;;;19961873;29;20038;-53
2022/11/23 12:29:13;;;;;;;0.20;0.00;;;9.10;90.30;;;;;;19955151;29;20054;-51
2022/11/23 12:39:36;;;;;;;0.10;0.00;;;8.90;90.50;;;;;;19959061;29;20030;-51
2022/11/23 12:49:45;;;;;;;0.00;0.00;;;8.60;89.20;;;;;;19959783;29;20064;-52
2022/11/23 12:59:57;;;;;;;0.20;0.00;;;8.10;89.40;;;;;;20016589;29;20517;-54
2022/11/23 13:10:25;;;;;;;0.00;0.00;;;7.80;91.30;;;;;;20011747;29;20042;-53
2022/11/23 13:20:49;;;;;;;0.00;0.00;;;7.30;91.30;;;;;;20005349;29;20087;-53
2022/11/23 13:31:18;;;;;;;0.40;0.00;;;6.30;92.30;;;;;;20014600;29;20050;-54
2022/11/23 13:41:33;;;;;;;0.08;0.00;;;6.00;92.70;;;;;;20006440;29;20041;-54
2022/11/23 13:51:36;;;;;;;0.30;0.13;;;5.50;95.90;;;;;;20011207;29;20058;-55
2022/11/23 14:02:05;;;;;;;0.82;0.20;;;5.00;98.30;;;;;;20009201;29;20326;-54
2022/11/23 14:12:16;;;;;;;0.30;0.17;;;4.60;99.90;;;;;;19771855;29;20063;-52
2022/11/23 14:22:50;;;;;;;0.47;0.28;;;4.30;99.90;;;;;;19781792;29;20047;-52
2022/11/23 14:33:27;;;;;;;1.27;0.30;;;3.90;99.90;;;;;;20658619;24;20029;-49
2022/11/23 14:43:32;;;;;;;0.68;0.20;;;3.50;99.90;;;;;;20112083;23;20497;-60
2022/11/23 15:04:21;;;;;;;0.50;0.20;;;2.70;99.90;;;;;;20158506;23;20082;-53
2022/11/23 15:14:27;;;;;;;0.60;0.30;;;2.00;99.90;;;;;;20124675;23;20110;-52
2022/11/23 15:24:30;;;;;;;0.30;0.20;;;1.30;99.90;;;;;;20183336;23;20411;-51
2022/11/23 15:34:38;;;;;;;0.30;0.20;;;0.90;99.90;;;;;;20119718;23;20050;31
2022/11/23 15:44:40;;;;;;;0.20;0.08;;;0.60;99.90;;;;;;20138479;23;20110;-53
2022/11/23 15:54:44;;;;;;;0.88;0.28;;;0.50;99.90;;;;;;20212156;23;20084;-53
2022/11/23 16:04:48;;;;;;;0.20;0.10;;;0.30;99.90;;;;;;20201313;23;20640;-55
2022/11/23 16:14:52;;;;;;;1.50;0.15;;;0.00;99.90;;;;;;20207909;23;20138;-51
2022/11/23 16:35:49;;;;;;;0.43;0.20;;;-0.30;99.90;;;;;;20463257;23;20489;-50
2022/11/23 16:45:53;;;;;;;0.38;0.20;;;-0.30;99.90;;;;;;20190776;23;20054;-56
2022/11/23 16:55:57;;;;;;;1.20;0.30;;;-0.40;99.90;;;;;;20192221;23;20061;-53
2022/11/23 17:06:16;;;;;;;0.60;0.20;;;-0.30;99.90;;;;;;20166460;23;20350;-49
2022/11/23 17:16:22;;;;;;;0.10;0.10;;;-0.30;99.90;;;;;;20163761;23;20049;-59
2022/11/23 17:26:24;;;;;;;0.45;0.20;;;-0.40;99.90;;;;;;20216967;23;20058;-52
2022/11/23 17:36:29;;;;;;;1.52;0.10;;;-0.50;99.90;;;;;;20208117;23;20192;-60
2022/11/23 17:46:32;;;;;;;0.47;0.10;;;-0.50;99.90;;;;;;20190081;23;20062;-52
2022/11/23 17:56:35;;;;;;;0.10;0.00;;;-0.60;99.90;;;;;;20184489;23;20514;-59
2022/11/23 18:06:38;;;;;;;0.10;0.00;;;-0.70;99.90;;;;;;20187154;23;20061;-49
2022/11/23 18:16:40;;;;;;;0.10;0.10;;;-0.80;99.90;;;;;;20173534;23;20412;-51
2022/11/23 18:26:43;;;;;;;0.10;0.00;;;-0.70;99.90;;;;;;20197480;23;20146;-59
2022/11/23 18:36:46;;;;;;;0.20;0.00;;;-0.90;99.90;;;;;;20190849;23;20062;-50
2022/11/23 18:46:48;;;;;;;0.20;0.08;;;-0.80;99.90;;;;;;20157268;23;1388671;-55
2022/11/23 18:56:51;;;;;;;0.20;0.00;;;-0.80;99.90;;;;;;20196563;23;20158;-60
2022/11/23 19:07:05;;;;;;;1.23;0.10;;;-0.90;99.90;;;;;;20151405;23;20073;-58
2022/11/23 19:17:07;;;;;;;0.15;0.00;;;-1.00;99.90;;;;;;20155107;23;20123;-54
2022/11/23 19:27:10;;;;;;;0.40;0.10;;;-0.80;99.90;;;;;;20960601;23;20062;-52
2022/11/23 19:37:12;;;;;;;0.30;0.10;;;-0.90;99.90;;;;;;20200657;23;20572;-50
2022/11/23 19:47:16;;;;;;;0.45;0.10;;;-0.60;99.90;;;;;;20194163;23;20125;-59
2022/11/23 19:57:18;;;;;;;1.20;0.10;;;-0.20;99.90;;;;;;20212467;23;20024;-52
2022/11/23 20:07:26;;;;;;;0.20;0.10;;;-0.10;99.90;;;;;;20181385;23;20095;31
2022/11/23 20:17:29;;;;;;;0.20;0.10;;;-0.10;99.90;;;;;;20139635;23;20062;-60
2022/11/23 20:27:31;;;;;;;0.85;0.25;;;0.00;99.90;;;;;;20183259;23;20516;-52
2022/11/23 20:37:34;;;;;;;0.10;0.00;;;0.80;99.90;;;;;;20218386;23;20099;-56
2022/11/23 20:47:37;;;;;;;0.20;0.00;;;1.90;99.90;;;;;;20195316;23;20050;-53
2022/11/23 20:57:40;;;;;;;0.10;0.00;;;2.70;99.30;;;;;;20191683;23;20818;-58
2022/11/23 21:07:51;;;;;;;0.38;0.10;;;2.80;99.90;;;;;;20158456;23;20062;31
2022/11/23 21:17:53;;;;;;;0.20;0.00;;;2.40;99.90;;;;;;20147625;23;20098;-59
2022/11/23 21:27:57;;;;;;;0.38;0.05;;;2.10;99.90;;;;;;21000828;23;20142;-52
2022/11/23 21:37:59;;;;;;;0.00;0.00;;;1.80;99.90;;;;;;20208206;23;20427;-56
2022/11/23 21:48:02;;;;;;;0.10;0.00;;;1.60;99.90;;;;;;20985211;23;20196;-50
2022/11/23 21:58:04;;;;;;;0.20;0.10;;;1.10;99.90;;;;;;20189242;23;20029;-58
2022/11/23 22:08:16;;;;;;;0.00;0.00;;;0.60;99.90;;;;;;20195392;23;20058;31
2022/11/23 22:18:18;;;;;;;0.35;0.00;;;0.20;99.90;;;;;;20126878;23;20115;-48
2022/11/23 22:28:20;;;;;;;0.00;0.00;;;-0.10;99.90;;;;;;20174107;23;20066;-58
2022/11/23 22:38:23;;;;;;;0.10;0.00;;;-0.50;99.90;;;;;;20203693;23;20058;-51
2022/11/23 22:48:26;;;;;;;1.30;0.00;;;-0.70;99.90;;;;;;20196295;23;20133;-53
2022/11/23 22:58:30;;;;;;;0.20;0.10;;;-0.80;99.90;;;;;;20194830;23;20036;-59
2022/11/23 23:08:40;;;;;;;0.40;0.10;;;-0.70;99.90;;;;;;20209797;23;20053;31
2022/11/23 23:18:43;;;;;;;1.45;0.17;;;-0.90;99.90;;;;;;20144161;23;20036;-53
2022/11/23 23:28:45;;;;;;;0.20;0.10;;;-0.80;99.90;;;;;;20209124;23;20090;-58
2022/11/23 23:38:48;;;;;;;0.30;0.13;;;-0.50;99.90;;;;;;20990609;23;20058;-59
2022/11/23 23:48:51;;;;;;;0.43;0.10;;;-0.50;99.90;;;;;;20193497;23;20575;-49
2022/11/23 23:58:58;;;;;;;0.40;0.10;;;-0.60;99.90;;;;;;20199219;23;20098;-58
